Time;durP1;ratioP1;P1;durP2;ratioP2;P2;SDS_P1;SDS_P2;PMS_P1;PMS_P2;Temp;Humidity;BMP_temperature;BMP_pressure;BME280_temperature;BME280_humidity;BME280_pressure;Samples;Min_cycle;Max_cycle;Signal;HPM_P1;HPM_P2
2022/09/04 00:02:15;;;;;;;24.10;13.07;;;23.70;59.10;;;;;;6145276;28;83000;-62
2022/09/04 00:05:15;;;;;;;20.10;12.35;;;23.80;59.20;;;;;;6131908;28;82785;-63
2022/09/04 00:08:16;;;;;;;21.10;12.35;;;23.80;59.10;;;;;;6136594;28;89166;-63
2022/09/04 00:11:17;;;;;;;19.55;11.60;;;23.80;59.10;;;;;;6152603;28;83163;-62
2022/09/04 00:14:18;;;;;;;19.20;11.65;;;23.80;59.20;;;;;;6153920;28;83211;-62
2022/09/04 00:17:18;;;;;;;19.15;11.02;;;23.70;59.00;;;;;;6134403;28;83304;-63
2022/09/04 00:20:19;;;;;;;21.15;11.07;;;23.80;59.10;;;;;;6116304;28;83166;-71
2022/09/04 00:23:19;;;;;;;16.67;9.98;;;23.70;59.20;;;;;;6106263;28;83842;-70
2022/09/04 00:26:20;;;;;;;17.88;11.00;;;23.70;59.20;;;;;;6114976;28;83101;-67
2022/09/04 00:29:20;;;;;;;20.98;9.88;;;23.70;59.30;;;;;;6110506;28;86447;-67
2022/09/04 00:32:22;;;;;;;18.63;10.18;;;23.70;59.30;;;;;;6115104;28;83175;-68
2022/09/04 00:35:22;;;;;;;20.33;10.65;;;23.70;59.50;;;;;;6115305;28;83629;-68
2022/09/04 00:38:23;;;;;;;15.10;9.55;;;23.70;59.50;;;;;;6115573;28;83065;-66
2022/09/04 00:41:23;;;;;;;17.63;9.75;;;23.70;59.30;;;;;;6114041;28;83502;-64
2022/09/04 00:44:24;;;;;;;14.98;9.20;;;23.70;59.60;;;;;;6110987;28;83559;-64
2022/09/04 00:47:24;;;;;;;18.33;10.05;;;23.70;59.70;;;;;;6114841;28;80387;-69
2022/09/04 00:50:25;;;;;;;15.27;8.50;;;23.70;60.30;;;;;;6124164;28;88857;-68
2022/09/04 00:53:25;;;;;;;14.35;8.07;;;23.80;60.00;;;;;;6128245;28;83013;-68
2022/09/04 00:56:26;;;;;;;18.38;8.20;;;23.80;60.30;;;;;;6120343;28;82045;-69
2022/09/04 00:59:26;;;;;;;10.38;6.82;;;23.80;60.00;;;;;;6108205;28;80730;-69
2022/09/04 01:02:27;;;;;;;10.93;6.80;;;23.80;59.80;;;;;;6112478;28;82953;-73
2022/09/04 01:05:27;;;;;;;14.35;7.90;;;23.80;59.90;;;;;;6107434;28;80143;-72
2022/09/04 01:08:28;;;;;;;11.43;6.45;;;23.80;59.70;;;;;;6114479;28;81179;-72
2022/09/04 01:11:28;;;;;;;11.00;6.75;;;23.80;59.90;;;;;;6120245;28;81205;-67
2022/09/04 01:14:32;;;;;;;10.52;6.63;;;23.70;59.80;;;;;;6105811;28;81047;-67
2022/09/04 01:17:32;;;;;;;14.43;7.32;;;23.80;60.00;;;;;;6105063;28;80368;-61
2022/09/04 01:20:33;;;;;;;10.40;6.35;;;23.80;60.00;;;;;;6108915;28;81006;-61
2022/09/04 01:23:34;;;;;;;9.48;5.95;;;23.80;59.90;;;;;;6103487;28;83623;-61
2022/09/04 01:26:34;;;;;;;9.70;5.47;;;23.70;59.90;;;;;;6106720;28;81723;-62
2022/09/04 01:29:34;;;;;;;11.75;7.10;;;23.80;59.80;;;;;;6100779;28;81165;-60
2022/09/04 01:32:35;;;;;;;9.80;6.03;;;23.70;59.90;;;;;;6129275;28;85498;-64
2022/09/04 01:35:35;;;;;;;11.27;6.95;;;23.80;59.90;;;;;;6141812;28;81058;-62
2022/09/04 01:38:36;;;;;;;7.93;5.45;;;23.80;60.70;;;;;;6136545;28;80974;-62
2022/09/04 01:41:36;;;;;;;10.40;5.43;;;23.80;60.30;;;;;;6136984;28;80537;-61
2022/09/04 01:44:37;;;;;;;11.93;5.80;;;23.80;60.40;;;;;;6127072;28;80397;-62
2022/09/04 01:47:37;;;;;;;9.73;5.50;;;23.80;60.30;;;;;;6127896;28;80850;-60
2022/09/04 01:50:38;;;;;;;10.15;5.18;;;23.80;60.40;;;;;;6138376;28;83165;-60
2022/09/04 01:53:38;;;;;;;7.07;5.15;;;23.80;60.20;;;;;;6130691;28;80095;-60
2022/09/04 01:56:39;;;;;;;9.02;5.13;;;23.80;60.30;;;;;;6141341;28;87650;-61
2022/09/04 01:59:39;;;;;;;9.10;5.10;;;23.80;60.00;;;;;;6124509;28;80679;-60
2022/09/04 02:02:40;;;;;;;6.70;4.78;;;23.80;60.30;;;;;;6149862;28;83869;-60
2022/09/04 02:05:40;;;;;;;12.25;6.00;;;23.80;60.30;;;;;;6139594;28;80306;-61
2022/09/04 02:08:41;;;;;;;8.18;5.32;;;23.80;60.10;;;;;;6138697;28;81275;-61
2022/09/04 02:11:44;;;;;;;7.55;4.95;;;23.80;60.20;;;;;;6129459;28;80430;-68
2022/09/04 02:14:44;;;;;;;7.18;5.10;;;23.80;60.30;;;;;;6130353;28;83130;-70
2022/09/04 02:17:44;;;;;;;7.57;4.40;;;23.80;60.10;;;;;;6148640;28;80260;-69
2022/09/04 02:20:45;;;;;;;7.32;4.63;;;23.80;60.30;;;;;;6121808;28;80539;-70
2022/09/04 02:23:45;;;;;;;10.60;4.80;;;23.70;60.20;;;;;;6109709;28;80535;-69
2022/09/04 02:26:46;;;;;;;7.03;5.00;;;23.70;60.30;;;;;;5953084;28;88020;-70
2022/09/04 02:29:46;;;;;;;8.20;4.63;;;23.70;60.30;;;;;;6121499;28;82381;-60
2022/09/04 02:32:47;;;;;;;5.82;4.05;;;23.70;60.30;;;;;;6116224;28;80552;-61
2022/09/04 02:35:47;;;;;;;6.20;4.30;;;23.70;60.40;;;;;;6118640;28;81169;-61
2022/09/04 02:38:48;;;;;;;7.97;4.07;;;23.70;60.50;;;;;;6117566;28;80545;-62
2022/09/04 02:41:49;;;;;;;6.13;4.20;;;23.70;60.40;;;;;;6113845;28;83130;-62
2022/09/04 02:44:50;;;;;;;6.20;3.92;;;23.70;60.50;;;;;;6119702;28;80445;-62
2022/09/04 02:47:50;;;;;;;6.60;4.40;;;23.70;60.30;;;;;;6112046;28;80352;-62
2022/09/04 02:50:52;;;;;;;8.25;4.75;;;23.70;60.30;;;;;;6118685;28;81599;-61
2022/09/04 02:53:52;;;;;;;6.68;4.20;;;23.70;60.20;;;;;;6117470;28;80283;-62
2022/09/04 02:56:53;;;;;;;7.22;4.93;;;23.70;60.20;;;;;;6116281;28;84077;-61
2022/09/04 02:59:53;;;;;;;6.72;4.75;;;23.70;60.30;;;;;;6119351;28;80184;-58
2022/09/04 03:02:54;;;;;;;6.32;4.50;;;23.70;60.30;;;;;;6109284;28;81292;-61
2022/09/04 03:05:54;;;;;;;8.27;4.13;;;23.70;61.00;;;;;;6103758;28;80678;-65
2022/09/04 03:08:55;;;;;;;6.53;3.85;;;23.70;60.90;;;;;;6104492;28;80374;-64
2022/09/04 03:11:56;;;;;;;7.13;4.40;;;23.70;61.00;;;;;;6114272;28;80696;-64
2022/09/04 03:14:56;;;;;;;5.60;4.22;;;23.80;60.90;;;;;;6113232;28;80446;-65
2022/09/04 03:17:57;;;;;;;5.15;3.55;;;23.70;60.80;;;;;;6116302;28;80948;-66
2022/09/04 03:20:59;;;;;;;5.28;3.53;;;23.70;60.90;;;;;;6118302;28;80515;-66
2022/09/04 03:24:00;;;;;;;5.50;3.97;;;23.70;60.60;;;;;;6111747;28;80779;-66
2022/09/04 03:27:00;;;;;;;5.10;3.30;;;23.70;60.70;;;;;;6126393;28;81087;-65
2022/09/04 03:30:02;;;;;;;7.45;4.03;;;23.70;60.80;;;;;;6127135;28;81296;-68
2022/09/04 03:33:03;;;;;;;5.25;3.45;;;23.70;60.50;;;;;;6122064;28;81679;-68
2022/09/04 03:36:03;;;;;;;5.38;3.63;;;23.70;60.50;;;;;;6123898;28;80811;-70
2022/09/04 03:39:04;;;;;;;6.75;3.72;;;23.70;60.30;;;;;;6120043;28;80766;-70
2022/09/04 03:42:04;;;;;;;5.88;3.65;;;23.70;60.40;;;;;;6116226;28;80146;-60
2022/09/04 03:45:05;;;;;;;5.63;4.03;;;23.70;60.20;;;;;;6107981;28;81490;-60
2022/09/04 03:48:05;;;;;;;6.00;3.65;;;23.70;60.30;;;;;;6106552;28;80831;-60
2022/09/04 03:51:06;;;;;;;5.43;3.58;;;23.70;60.50;;;;;;6106068;28;80647;-59
2022/09/04 03:54:06;;;;;;;4.03;3.10;;;23.70;60.50;;;;;;6115960;28;80300;-60
2022/09/04 03:57:07;;;;;;;4.80;3.53;;;23.70;60.40;;;;;;6118128;28;80291;-61
2022/09/04 04:00:11;;;;;;;4.38;3.25;;;23.60;60.60;;;;;;6109619;28;80224;-64
2022/09/04 04:03:14;;;;;;;4.60;3.60;;;23.70;60.80;;;;;;6115496;28;80672;-63
2022/09/04 04:06:14;;;;;;;6.78;3.70;;;23.60;60.60;;;;;;6104941;28;84112;-63
2022/09/04 04:09:15;;;;;;;4.55;3.38;;;23.60;60.60;;;;;;6105075;28;80338;-65
2022/09/04 04:12:16;;;;;;;6.35;3.90;;;23.70;60.50;;;;;;6106992;28;80451;-66
2022/09/04 04:15:16;;;;;;;11.65;4.15;;;23.60;60.60;;;;;;6119428;28;85571;-65
2022/09/04 04:18:17;;;;;;;5.85;3.45;;;23.60;60.50;;;;;;6105944;28;81268;-67
2022/09/04 04:21:17;;;;;;;5.00;3.88;;;23.60;60.50;;;;;;6118039;28;83619;-65
2022/09/04 04:24:18;;;;;;;5.90;4.40;;;23.60;60.50;;;;;;6115693;28;81616;-62
2022/09/04 04:27:21;;;;;;;5.15;3.47;;;23.60;60.60;;;;;;6118313;28;82078;-62
2022/09/04 04:30:22;;;;;;;5.45;3.42;;;23.60;60.60;;;;;;6126212;28;87690;-66
2022/09/04 04:33:22;;;;;;;4.40;3.33;;;23.60;60.70;;;;;;6108275;28;80840;-66
2022/09/04 04:36:23;;;;;;;5.07;3.92;;;23.60;60.50;;;;;;6124821;28;80813;-66
2022/09/04 04:39:23;;;;;;;3.67;2.95;;;23.60;60.70;;;;;;6122709;28;80197;-64
2022/09/04 04:42:24;;;;;;;5.00;3.10;;;23.60;60.70;;;;;;6104475;28;80695;-62
2022/09/04 04:48:43;;;;;;;6.53;4.07;;;23.70;61.10;;;;;;6104786;28;80618;-64
2022/09/04 04:51:44;;;;;;;3.72;2.97;;;23.70;61.20;;;;;;6109129;28;80531;-67
2022/09/04 04:54:44;;;;;;;6.22;3.38;;;23.70;61.10;;;;;;6120230;28;80358;-66
2022/09/04 04:57:45;;;;;;;5.00;3.55;;;23.60;61.10;;;;;;6124290;28;86933;-67
2022/09/04 05:00:46;;;;;;;15.52;4.05;;;23.70;61.00;;;;;;6128994;28;80615;-68
2022/09/04 05:03:46;;;;;;;6.05;3.13;;;23.70;61.20;;;;;;6122255;28;82890;-66
2022/09/04 05:06:47;;;;;;;4.07;3.40;;;23.70;61.20;;;;;;6119905;28;83556;-67
2022/09/04 05:09:47;;;;;;;4.15;3.13;;;23.70;61.20;;;;;;6082985;28;84140;-65
2022/09/04 05:12:48;;;;;;;3.80;2.92;;;23.70;61.40;;;;;;6089971;28;84562;-53
2022/09/04 05:15:48;;;;;;;5.10;3.17;;;23.70;61.60;;;;;;6108524;28;81546;-63
2022/09/04 05:18:49;;;;;;;6.38;3.92;;;23.70;61.50;;;;;;6109522;28;80562;-60
2022/09/04 05:21:49;;;;;;;5.35;3.40;;;23.70;61.90;;;;;;6106624;28;80434;-58
2022/09/04 05:24:50;;;;;;;8.90;3.58;;;23.70;62.00;;;;;;6125655;28;80606;-60
2022/09/04 05:27:50;;;;;;;4.25;3.15;;;23.70;62.10;;;;;;6124730;28;80661;-60
2022/09/04 05:30:51;;;;;;;9.70;4.22;;;23.70;62.30;;;;;;6125473;28;80388;-60
2022/09/04 05:33:51;;;;;;;8.63;3.22;;;23.70;62.80;;;;;;6126090;28;87293;-55
2022/09/04 05:36:52;;;;;;;8.48;4.00;;;23.70;63.00;;;;;;6115444;28;80780;-53
2022/09/04 05:39:52;;;;;;;10.20;3.90;;;23.80;63.20;;;;;;6129120;28;80370;-53
2022/09/04 05:42:52;;;;;;;27.55;4.35;;;23.80;62.80;;;;;;6125627;28;80132;-53
2022/09/04 05:45:53;;;;;;;20.48;3.72;;;23.80;62.70;;;;;;6130032;28;80995;-52
2022/09/04 05:48:54;;;;;;;6.90;4.03;;;23.80;63.20;;;;;;6126185;28;81111;-55
2022/09/04 05:51:54;;;;;;;23.58;5.63;;;23.80;63.50;;;;;;6127059;28;81085;-59
2022/09/04 05:54:55;;;;;;;18.58;6.93;;;23.80;63.30;;;;;;6123749;28;80433;-58
2022/09/04 05:57:55;;;;;;;22.77;10.38;;;23.80;62.90;;;;;;6110147;28;86269;-61
2022/09/04 06:00:58;;;;;;;24.40;12.38;;;23.80;62.30;;;;;;6115630;28;83462;-59
2022/09/04 06:03:59;;;;;;;22.23;13.38;;;23.80;62.20;;;;;;6104487;28;83260;-59
2022/09/04 06:06:59;;;;;;;31.15;14.43;;;23.80;62.10;;;;;;6105076;28;85606;-62
2022/09/04 06:10:00;;;;;;;26.92;12.93;;;23.80;62.00;;;;;;6114795;28;83589;-66
2022/09/04 06:13:00;;;;;;;31.40;13.98;;;23.80;61.80;;;;;;6109524;28;84325;-65
2022/09/04 06:16:01;;;;;;;32.40;13.88;;;23.80;62.10;;;;;;6101708;28;84091;-63
2022/09/04 06:19:01;;;;;;;29.33;13.40;;;23.80;61.10;;;;;;6113285;28;83361;-64
2022/09/04 06:22:02;;;;;;;24.52;12.90;;;23.80;61.00;;;;;;6114743;28;83063;-64
2022/09/04 06:25:02;;;;;;;29.70;12.75;;;23.80;60.90;;;;;;6121567;28;82936;-65
2022/09/04 06:28:03;;;;;;;19.40;12.40;;;23.80;61.00;;;;;;6107890;28;82773;-67
2022/09/04 06:31:03;;;;;;;27.80;13.15;;;23.80;60.90;;;;;;6121107;28;83612;-69
2022/09/04 06:34:04;;;;;;;24.98;12.00;;;23.90;61.00;;;;;;6114743;28;85882;-71
2022/09/04 06:37:04;;;;;;;28.20;11.73;;;23.90;60.90;;;;;;6096011;28;85602;-70
2022/09/04 06:40:05;;;;;;;26.73;12.18;;;23.90;60.80;;;;;;6096766;28;86847;-65
2022/09/04 06:43:05;;;;;;;26.50;12.80;;;23.90;60.70;;;;;;6105934;28;85486;-72
2022/09/04 06:46:06;;;;;;;20.63;11.65;;;23.90;60.60;;;;;;6094841;28;86547;-64
2022/09/04 06:49:06;;;;;;;26.83;11.30;;;23.90;60.90;;;;;;6096089;28;86268;-66
2022/09/04 06:52:07;;;;;;;22.60;9.43;;;23.90;61.00;;;;;;6092858;28;83908;-62
2022/09/04 06:55:07;;;;;;;24.52;10.15;;;24.00;61.10;;;;;;6075713;28;83466;-67
2022/09/04 06:58:08;;;;;;;19.05;8.68;;;24.00;61.30;;;;;;6082298;28;83505;-63
2022/09/04 07:01:10;;;;;;;14.45;8.55;;;24.00;61.40;;;;;;6095614;28;83817;-66
2022/09/04 07:04:10;;;;;;;27.55;9.68;;;24.00;61.40;;;;;;6113234;28;83736;-68
2022/09/04 07:07:11;;;;;;;24.67;8.50;;;24.00;61.70;;;;;;6103307;28;81463;-68
2022/09/04 07:10:12;;;;;;;17.52;8.48;;;24.00;61.70;;;;;;6121450;28;87968;-66
2022/09/04 07:13:12;;;;;;;21.52;8.88;;;24.00;61.70;;;;;;6113987;28;80635;-65
2022/09/04 07:16:13;;;;;;;28.23;9.75;;;24.00;61.60;;;;;;6116885;28;80138;-64
2022/09/04 07:19:13;;;;;;;22.13;9.40;;;24.00;61.70;;;;;;6125106;28;80451;-66
2022/09/04 07:22:16;;;;;;;26.88;9.30;;;24.00;62.00;;;;;;6117934;28;81910;-62
2022/09/04 07:25:17;;;;;;;22.13;8.88;;;24.00;62.30;;;;;;6099845;28;83305;-65
2022/09/04 07:28:17;;;;;;;19.70;8.70;;;24.00;63.20;;;;;;6114539;28;80976;-62
2022/09/04 07:31:19;;;;;;;32.33;9.00;;;23.90;63.30;;;;;;6102548;28;83329;-63
2022/09/04 07:34:19;;;;;;;23.77;7.43;;;24.00;63.60;;;;;;6096710;28;80483;-59
2022/09/04 07:37:25;;;;;;;20.83;7.30;;;24.00;63.30;;;;;;6109725;28;80487;-59
2022/09/04 07:40:26;;;;;;;16.30;6.22;;;24.00;62.40;;;;;;6104095;28;81028;-63
2022/09/04 07:43:26;;;;;;;22.92;6.20;;;24.00;61.70;;;;;;6098532;28;81116;-65
2022/09/04 07:46:29;;;;;;;9.52;5.55;;;23.90;61.40;;;;;;6125608;28;80579;-59
2022/09/04 07:49:29;;;;;;;11.93;5.55;;;23.90;61.10;;;;;;6123687;28;80261;-63
2022/09/04 07:52:30;;;;;;;11.40;5.00;;;23.90;60.90;;;;;;6123346;28;80628;-62
2022/09/04 07:55:30;;;;;;;9.52;4.55;;;23.90;60.60;;;;;;6103393;28;80622;-64
2022/09/04 07:58:31;;;;;;;9.88;4.07;;;23.90;60.50;;;;;;6104402;28;83495;-64
2022/09/04 08:01:31;;;;;;;12.43;4.88;;;23.90;60.40;;;;;;6119221;28;82141;-67
2022/09/04 08:04:32;;;;;;;11.07;5.13;;;23.90;60.80;;;;;;6108477;28;81353;-64
2022/09/04 08:07:32;;;;;;;8.82;4.47;;;23.90;60.70;;;;;;6114005;28;86333;-63
2022/09/04 08:10:32;;;;;;;8.23;4.55;;;23.90;60.60;;;;;;6119801;28;80949;-63
2022/09/04 08:13:34;;;;;;;8.35;4.30;;;23.80;60.10;;;;;;6128268;28;87083;-65
2022/09/04 08:16:34;;;;;;;4.78;3.72;;;23.90;60.00;;;;;;6130364;28;80715;-63
2022/09/04 08:19:39;;;;;;;10.02;4.60;;;23.80;60.60;;;;;;6129675;28;81348;-62
2022/09/04 08:22:39;;;;;;;11.68;5.38;;;23.90;60.70;;;;;;6121284;28;80464;-66
2022/09/04 08:25:40;;;;;;;27.52;7.18;;;23.90;61.20;;;;;;6103487;28;82784;-64
2022/09/04 08:28:41;;;;;;;20.05;10.45;;;24.00;61.30;;;;;;6089965;28;81701;-63
2022/09/04 08:31:42;;;;;;;25.67;11.65;;;24.00;61.40;;;;;;6117502;28;84819;-69
2022/09/04 08:34:44;;;;;;;23.58;9.88;;;24.00;61.40;;;;;;6107652;28;83296;-66
2022/09/04 08:37:45;;;;;;;23.10;9.25;;;24.10;61.60;;;;;;6122855;28;87423;-69
2022/09/04 08:40:45;;;;;;;27.60;8.50;;;24.10;61.40;;;;;;6106303;28;82488;-62
2022/09/04 08:43:46;;;;;;;19.60;7.40;;;24.00;60.80;;;;;;6124556;28;81345;-68
2022/09/04 08:46:47;;;;;;;17.23;7.07;;;24.00;61.20;;;;;;6127635;28;81332;-70
2022/09/04 08:49:48;;;;;;;20.17;8.13;;;24.00;61.60;;;;;;6124185;28;80570;-63
2022/09/04 08:52:49;;;;;;;22.83;8.65;;;24.00;61.80;;;;;;6123360;28;82551;-70
2022/09/04 08:55:50;;;;;;;18.65;7.75;;;24.00;62.50;;;;;;6126633;28;85020;-64
2022/09/04 08:58:50;;;;;;;22.23;8.63;;;24.10;62.70;;;;;;6123598;28;80462;-68
2022/09/04 09:01:51;;;;;;;16.85;7.50;;;24.10;62.50;;;;;;6127510;28;80501;-65
2022/09/04 09:04:53;;;;;;;19.50;10.55;;;24.20;62.60;;;;;;6111197;28;80651;-66
2022/09/04 09:07:54;;;;;;;21.67;10.30;;;24.30;63.40;;;;;;6108127;28;82826;-65
2022/09/04 09:10:55;;;;;;;21.40;12.02;;;24.30;63.50;;;;;;6112555;28;87110;-70
2022/09/04 09:13:55;;;;;;;28.05;14.05;;;24.30;63.80;;;;;;6128180;28;82925;-66
2022/09/04 09:16:56;;;;;;;35.05;16.23;;;24.40;65.00;;;;;;6139430;28;85746;-67
2022/09/04 09:19:56;;;;;;;26.92;14.38;;;24.40;65.60;;;;;;6149777;28;83216;-73
2022/09/04 09:22:58;;;;;;;19.08;11.50;;;24.40;64.20;;;;;;6141122;28;83172;-74
2022/09/04 09:25:59;;;;;;;15.73;9.05;;;24.40;63.80;;;;;;6139217;28;83180;-72
2022/09/04 09:29:00;;;;;;;14.93;8.02;;;24.40;62.50;;;;;;6124621;28;81958;-68
2022/09/04 09:32:00;;;;;;;28.10;8.55;;;24.40;62.30;;;;;;6142939;28;83676;-70
2022/09/04 09:35:01;;;;;;;15.55;6.93;;;24.40;62.10;;;;;;6129938;28;80247;-70
2022/09/04 09:38:01;;;;;;;10.05;5.25;;;24.40;61.10;;;;;;6107524;28;81826;-68
2022/09/04 09:41:02;;;;;;;10.25;5.18;;;24.30;59.20;;;;;;6105254;28;83018;-69
2022/09/04 09:44:02;;;;;;;4.60;3.65;;;24.30;58.80;;;;;;6101689;28;81798;-69
2022/09/04 09:47:03;;;;;;;7.05;4.07;;;24.20;58.10;;;;;;6125099;28;83107;-71
2022/09/04 09:50:03;;;;;;;6.15;4.43;;;24.00;57.20;;;;;;6120077;28;80941;-68
2022/09/04 09:53:04;;;;;;;4.70;3.85;;;23.90;57.10;;;;;;6110831;28;80921;-69
2022/09/04 09:56:04;;;;;;;6.13;4.20;;;23.80;56.80;;;;;;6118673;28;80879;-69
2022/09/04 09:59:04;;;;;;;6.50;4.30;;;23.70;57.20;;;;;;6115923;28;80856;-65
2022/09/04 10:02:06;;;;;;;5.40;3.72;;;23.70;57.40;;;;;;6125867;28;80906;-66
2022/09/04 10:05:07;;;;;;;7.00;3.42;;;23.60;57.60;;;;;;6113461;28;80394;-68
2022/09/04 10:08:09;;;;;;;8.55;4.10;;;23.60;57.80;;;;;;6108463;28;87608;-60
2022/09/04 10:11:09;;;;;;;6.32;3.72;;;23.60;57.90;;;;;;6134344;28;80402;-60
2022/09/04 10:14:10;;;;;;;7.15;4.63;;;23.60;57.80;;;;;;6149949;28;80766;-61
2022/09/04 10:17:10;;;;;;;4.93;3.70;;;23.70;58.10;;;;;;6138369;28;80175;-64
2022/09/04 10:20:11;;;;;;;7.20;4.47;;;23.60;57.60;;;;;;6144653;28;81769;-61
2022/09/04 10:23:11;;;;;;;4.68;3.28;;;23.50;58.50;;;;;;6133702;28;81221;-61
2022/09/04 10:26:13;;;;;;;7.18;3.75;;;23.50;58.60;;;;;;6070426;28;87095;-72
2022/09/04 10:29:14;;;;;;;6.07;3.97;;;23.40;58.50;;;;;;6134700;28;83905;-70
2022/09/04 10:32:14;;;;;;;10.43;4.28;;;23.30;58.60;;;;;;6150733;28;85173;-72
2022/09/04 10:35:15;;;;;;;7.00;4.30;;;23.20;59.00;;;;;;6147669;28;80906;-67
2022/09/04 10:38:15;;;;;;;6.13;4.22;;;23.20;59.20;;;;;;6151557;28;82948;-68
2022/09/04 10:41:16;;;;;;;8.10;4.90;;;23.20;59.10;;;;;;6143435;28;80569;-67
2022/09/04 10:44:16;;;;;;;5.32;4.28;;;23.20;59.80;;;;;;6144706;28;80323;-58
2022/09/04 10:47:17;;;;;;;8.10;4.40;;;23.20;60.20;;;;;;6137254;28;80715;-58
2022/09/04 10:50:17;;;;;;;9.85;4.53;;;23.20;60.70;;;;;;6143153;28;81477;-58
2022/09/04 10:53:20;;;;;;;5.07;4.00;;;23.30;60.50;;;;;;6140624;28;80838;-58
2022/09/04 10:56:20;;;;;;;5.70;3.83;;;23.20;60.10;;;;;;6131080;28;80375;-59
2022/09/04 10:59:22;;;;;;;6.07;3.90;;;23.30;60.00;;;;;;6137981;28;81483;-59
2022/09/04 11:02:22;;;;;;;9.23;4.32;;;23.20;59.90;;;;;;6120640;28;80364;-68
2022/09/04 11:05:23;;;;;;;6.55;4.72;;;23.20;60.40;;;;;;6110629;28;80714;-67
2022/09/04 11:08:23;;;;;;;6.15;3.92;;;23.20;60.30;;;;;;6115066;28;80954;-61
2022/09/04 11:11:24;;;;;;;4.35;3.47;;;23.20;60.30;;;;;;6115950;28;80871;-68
2022/09/04 11:14:27;;;;;;;9.65;4.85;;;23.20;60.10;;;;;;6115080;28;80768;-68
2022/09/04 11:17:29;;;;;;;4.85;3.42;;;23.20;59.90;;;;;;6121461;28;81267;-67
2022/09/04 11:20:29;;;;;;;6.75;4.38;;;23.30;60.30;;;;;;6117017;28;81081;-66
2022/09/04 11:23:30;;;;;;;7.93;4.47;;;23.20;60.00;;;;;;6111927;28;80460;-50
2022/09/04 11:26:31;;;;;;;13.85;3.88;;;23.20;60.10;;;;;;6115007;28;80789;-51
2022/09/04 11:29:32;;;;;;;6.93;4.38;;;23.10;61.00;;;;;;6117858;28;80536;-52
2022/09/04 11:32:32;;;;;;;6.03;4.47;;;23.10;61.10;;;;;;6120284;28;80449;-50
2022/09/04 11:35:33;;;;;;;6.05;3.83;;;23.10;60.60;;;;;;6117779;28;80335;-51
2022/09/04 11:38:42;;;;;;;10.05;4.60;;;23.10;62.10;;;;;;6122741;28;81100;-53
2022/09/04 11:41:43;;;;;;;4.38;3.67;;;23.20;62.10;;;;;;6139008;28;85650;-48
2022/09/04 11:44:45;;;;;;;6.55;4.20;;;23.20;61.60;;;;;;6136340;28;81632;-50
2022/09/04 11:47:45;;;;;;;5.78;4.00;;;23.10;61.90;;;;;;6141184;28;81130;-49
2022/09/04 11:50:46;;;;;;;6.72;3.60;;;23.10;61.50;;;;;;6142881;28;80172;-54
2022/09/04 11:53:46;;;;;;;5.95;4.30;;;23.10;60.90;;;;;;6140335;28;81479;-53
2022/09/04 11:56:47;;;;;;;8.88;4.70;;;23.10;60.60;;;;;;6144930;28;80708;-55
2022/09/04 11:59:47;;;;;;;6.13;3.90;;;23.10;61.00;;;;;;6145223;28;80085;-54
2022/09/04 12:02:48;;;;;;;5.57;3.88;;;23.10;61.90;;;;;;6141715;28;80827;-52
2022/09/04 12:05:49;;;;;;;6.47;4.07;;;23.10;61.40;;;;;;6144397;28;85453;-55
2022/09/04 12:08:49;;;;;;;5.47;3.58;;;23.10;60.60;;;;;;6142737;28;81488;-52
2022/09/04 12:11:50;;;;;;;6.82;4.32;;;23.30;60.90;;;;;;6143461;28;80491;-52
2022/09/04 12:14:50;;;;;;;7.35;4.45;;;23.30;60.70;;;;;;6141316;28;83469;-53
2022/09/04 12:17:55;;;;;;;8.75;3.95;;;23.30;60.70;;;;;;6143568;28;81275;-50
2022/09/04 12:20:55;;;;;;;7.65;5.00;;;23.30;60.40;;;;;;6142860;28;85594;-50
2022/09/04 12:23:56;;;;;;;10.80;4.68;;;23.40;60.40;;;;;;6132903;28;85353;-50
2022/09/04 12:26:56;;;;;;;6.18;4.38;;;23.30;60.00;;;;;;6145856;28;81002;-50
2022/09/04 12:29:57;;;;;;;6.07;3.95;;;23.30;59.80;;;;;;6149860;28;80275;-54
2022/09/04 12:32:57;;;;;;;10.40;3.50;;;23.30;60.00;;;;;;6146986;28;80789;-52
2022/09/04 12:35:59;;;;;;;5.65;3.60;;;23.20;59.90;;;;;;6149267;28;80529;-59
2022/09/04 12:39:01;;;;;;;8.48;3.95;;;23.20;59.70;;;;;;6143683;28;81908;-59
2022/09/04 12:42:02;;;;;;;6.47;3.95;;;23.10;60.10;;;;;;6149446;28;80304;-61
2022/09/04 12:45:02;;;;;;;6.68;4.15;;;23.10;59.90;;;;;;6146586;28;81704;-59
2022/09/04 12:48:03;;;;;;;9.90;4.15;;;23.10;60.30;;;;;;6151965;28;80419;-59
2022/09/04 12:51:04;;;;;;;6.28;4.00;;;23.10;60.30;;;;;;6149541;28;81578;-60
2022/09/04 12:54:04;;;;;;;5.25;3.55;;;23.20;60.40;;;;;;6127764;28;81603;-60
2022/09/04 12:57:07;;;;;;;3.75;3.08;;;23.20;60.40;;;;;;6153730;28;83589;-59
2022/09/04 13:00:09;;;;;;;5.20;3.47;;;23.20;60.40;;;;;;6146927;28;83737;-60
2022/09/04 13:03:10;;;;;;;5.78;3.65;;;23.20;60.30;;;;;;6145158;28;80458;-60
2022/09/04 13:06:10;;;;;;;8.20;3.88;;;23.20;60.20;;;;;;6147843;28;80515;-60
2022/09/04 13:09:11;;;;;;;5.88;4.32;;;23.30;60.30;;;;;;6138777;28;81441;-59
2022/09/04 13:12:11;;;;;;;5.25;3.75;;;23.30;60.30;;;;;;6126133;28;81449;-59
2022/09/04 13:15:12;;;;;;;11.27;4.72;;;23.30;60.50;;;;;;6134963;28;80652;-60
2022/09/04 13:18:13;;;;;;;12.75;6.57;;;23.20;60.10;;;;;;6150353;28;81992;-60
2022/09/04 13:21:14;;;;;;;68.10;35.33;;;23.30;60.30;;;;;;6132376;28;80541;-59
2022/09/04 13:24:14;;;;;;;66.30;32.67;;;23.20;62.70;;;;;;6140344;28;85916;-63
2022/09/04 13:27:15;;;;;;;243.75;129.48;;;23.20;62.50;;;;;;6139653;28;83205;-60
2022/09/04 13:30:19;;;;;;;368.42;209.20;;;23.30;67.00;;;;;;6147295;28;85672;-55
2022/09/04 13:33:20;;;;;;;211.77;121.10;;;23.40;67.40;;;;;;6126816;28;85463;-55
2022/09/04 13:36:21;;;;;;;183.50;104.47;;;23.50;66.10;;;;;;6125371;28;88387;-52
2022/09/04 13:39:21;;;;;;;158.18;85.68;;;23.50;65.70;;;;;;6111984;28;85625;-53
2022/09/04 13:42:22;;;;;;;131.40;75.28;;;23.60;66.70;;;;;;6110684;28;85467;-52
2022/09/04 13:45:22;;;;;;;130.65;71.22;;;23.60;66.80;;;;;;6118594;28;89333;-57
2022/09/04 13:48:23;;;;;;;91.60;52.30;;;23.70;67.00;;;;;;6107644;28;83089;-55
2022/09/04 13:51:23;;;;;;;69.45;39.60;;;23.70;66.50;;;;;;6107209;28;83606;-55
2022/09/04 13:54:24;;;;;;;64.93;34.13;;;23.80;65.90;;;;;;6117214;28;82987;-55
2022/09/04 13:57:26;;;;;;;47.35;25.98;;;23.80;65.50;;;;;;6112574;28;84560;-57
2022/09/04 14:00:27;;;;;;;38.35;22.30;;;23.80;65.60;;;;;;6120500;28;83010;-54
2022/09/04 14:03:27;;;;;;;40.55;20.00;;;23.90;65.00;;;;;;6115194;28;83219;-55
2022/09/04 14:06:28;;;;;;;26.17;16.88;;;23.90;64.50;;;;;;6113126;28;82924;-53
2022/09/04 14:09:28;;;;;;;25.52;15.40;;;23.90;64.40;;;;;;6111022;28;86001;-55
2022/09/04 14:12:30;;;;;;;18.45;11.70;;;24.00;64.70;;;;;;6138298;28;86134;-55
2022/09/04 14:15:31;;;;;;;14.23;9.02;;;24.00;62.80;;;;;;6111173;28;83078;-58
2022/09/04 14:18:33;;;;;;;13.52;8.27;;;24.00;63.00;;;;;;6109651;28;83068;-57
2022/09/04 14:21:33;;;;;;;15.00;9.32;;;24.00;62.70;;;;;;6106973;28;80758;-58
2022/09/04 14:24:34;;;;;;;15.80;8.52;;;24.10;62.90;;;;;;6115866;28;80506;-60
2022/09/04 14:27:34;;;;;;;13.75;8.27;;;24.10;62.70;;;;;;6115278;28;80246;-63
2022/09/04 14:30:35;;;;;;;14.73;7.35;;;24.10;62.20;;;;;;6101206;28;80450;-64
2022/09/04 14:33:35;;;;;;;14.30;6.43;;;24.10;62.40;;;;;;6119167;28;81680;-61
2022/09/04 14:36:36;;;;;;;8.98;5.68;;;24.10;62.30;;;;;;6111533;28;80889;-61
2022/09/04 14:39:37;;;;;;;9.40;5.38;;;24.10;62.30;;;;;;6097030;28;80808;-59
2022/09/04 14:42:41;;;;;;;9.82;5.75;;;24.10;62.30;;;;;;6098536;28;82220;-61
2022/09/04 14:45:41;;;;;;;9.50;5.22;;;24.10;62.40;;;;;;6107876;28;83391;-54
2022/09/04 14:48:43;;;;;;;8.45;5.57;;;24.10;62.40;;;;;;6107206;28;80304;-56
2022/09/04 14:51:45;;;;;;;6.47;4.93;;;24.10;62.40;;;;;;6108658;28;81095;-53
2022/09/04 14:54:45;;;;;;;18.90;4.72;;;24.10;62.60;;;;;;6117666;28;81536;-53
2022/09/04 14:57:46;;;;;;;6.55;4.18;;;24.10;63.20;;;;;;6123155;28;80456;-55
2022/09/04 15:00:46;;;;;;;5.10;4.15;;;24.00;63.30;;;;;;6107577;28;82442;-55
2022/09/04 15:03:47;;;;;;;6.88;4.65;;;24.00;63.50;;;;;;6103776;28;80688;-61
2022/09/04 15:06:50;;;;;;;9.73;5.53;;;24.00;63.60;;;;;;6105453;28;80829;-58
2022/09/04 15:09:53;;;;;;;10.45;6.07;;;24.10;63.50;;;;;;6110647;28;80356;-61
2022/09/04 15:12:53;;;;;;;10.55;5.32;;;24.10;63.60;;;;;;6116239;28;80797;-61
2022/09/04 15:15:57;;;;;;;8.20;4.70;;;24.10;64.20;;;;;;6128751;28;81189;-56
2022/09/04 15:18:57;;;;;;;6.60;4.55;;;24.10;64.00;;;;;;6117595;28;80427;-62
2022/09/04 15:21:58;;;;;;;7.40;4.65;;;24.10;64.00;;;;;;6111167;28;87279;-72
2022/09/04 15:24:58;;;;;;;7.03;4.57;;;23.80;64.50;;;;;;6117173;28;80864;-70
2022/09/04 15:27:59;;;;;;;8.18;5.13;;;23.80;64.70;;;;;;6105748;28;83150;-72
2022/09/04 15:30:59;;;;;;;7.00;4.72;;;23.80;64.70;;;;;;6101674;28;82693;-71
2022/09/04 15:34:00;;;;;;;8.00;5.25;;;23.80;64.70;;;;;;6103358;28;83703;-71
2022/09/04 15:37:01;;;;;;;8.60;5.00;;;23.80;64.30;;;;;;6104092;28;86557;-70